Time;durP1;ratioP1;P1;durP2;ratioP2;P2;SDS_P1;SDS_P2;PMS_P1;PMS_P2;Temp;Humidity;BMP_temperature;BMP_pressure;BME280_temperature;BME280_humidity;BME280_pressure;Samples;Min_cycle;Max_cycle;Signal;HPM_P1;HPM_P2
2023/09/25 00:00:32;;;;;;;8.25;4.10;;;13.40;99.90;;;;;;4961058;28;20498;-46
2023/09/25 00:02:59;;;;;;;4.93;3.10;;;13.40;99.90;;;;;;4993709;28;20531;-45
2023/09/25 00:05:26;;;;;;;6.90;3.63;;;13.30;99.90;;;;;;4991601;28;20069;-44
2023/09/25 00:07:53;;;;;;;5.85;3.15;;;13.30;99.90;;;;;;5001885;28;20069;-45
2023/09/25 00:10:18;;;;;;;6.07;3.28;;;13.30;99.90;;;;;;4984171;28;20444;-45
2023/09/25 00:12:44;;;;;;;10.05;3.47;;;13.30;99.90;;;;;;4990743;28;20262;-46
2023/09/25 00:15:10;;;;;;;4.40;2.90;;;13.30;99.90;;;;;;5002174;28;20076;-44
2023/09/25 00:17:37;;;;;;;5.78;3.05;;;13.20;99.90;;;;;;4981618;28;20054;-44
2023/09/25 00:20:04;;;;;;;6.28;3.78;;;13.20;99.90;;;;;;4984008;28;20038;-44
2023/09/25 00:22:30;;;;;;;5.93;3.50;;;13.20;99.90;;;;;;4983716;28;20165;-44
2023/09/25 00:24:59;;;;;;;7.10;3.70;;;13.10;99.90;;;;;;4984327;28;20046;-46
2023/09/25 00:27:25;;;;;;;5.70;3.33;;;13.10;99.90;;;;;;4994474;28;20152;-45
2023/09/25 00:29:50;;;;;;;6.20;3.28;;;13.10;99.90;;;;;;5001536;28;20076;-44
2023/09/25 00:32:17;;;;;;;4.68;2.90;;;13.00;99.90;;;;;;5001043;28;20041;-48
2023/09/25 00:34:42;;;;;;;4.97;3.20;;;12.90;99.90;;;;;;4993415;28;20159;-44
2023/09/25 00:37:08;;;;;;;5.57;3.80;;;12.90;99.90;;;;;;5001790;28;20045;-45
2023/09/25 00:39:34;;;;;;;7.22;3.25;;;12.90;99.90;;;;;;5001726;28;20473;-44
2023/09/25 00:41:59;;;;;;;8.23;4.25;;;12.80;99.90;;;;;;4990939;28;20553;-44
2023/09/25 00:44:25;;;;;;;6.65;3.25;;;12.80;99.90;;;;;;4989600;28;20035;-44
2023/09/25 00:46:51;;;;;;;4.40;3.22;;;12.80;99.90;;;;;;4999702;28;20121;-45
2023/09/25 00:49:17;;;;;;;7.57;3.63;;;12.70;99.90;;;;;;4996414;28;20041;-44
2023/09/25 00:51:44;;;;;;;5.88;3.88;;;12.70;99.90;;;;;;4978984;28;20658;-45
2023/09/25 00:54:11;;;;;;;6.15;3.53;;;12.70;99.90;;;;;;5001217;28;20054;-44
2023/09/25 00:56:37;;;;;;;6.07;3.67;;;12.70;99.90;;;;;;5001809;28;20052;-43
2023/09/25 00:59:03;;;;;;;4.50;3.33;;;12.60;99.90;;;;;;4983669;28;20111;-44
2023/09/25 01:01:29;;;;;;;5.65;3.17;;;12.60;99.90;;;;;;4993095;28;20087;-44
2023/09/25 01:03:55;;;;;;;5.57;3.58;;;12.60;99.90;;;;;;4976406;28;20307;-48
2023/09/25 01:06:21;;;;;;;6.40;3.78;;;12.60;99.90;;;;;;5001509;28;20103;-44
2023/09/25 01:08:46;;;;;;;6.65;3.45;;;12.60;99.90;;;;;;4999479;28;20050;-44
2023/09/25 01:11:12;;;;;;;7.07;3.65;;;12.60;99.90;;;;;;5000670;28;20085;-44
2023/09/25 01:13:38;;;;;;;6.05;3.40;;;12.50;99.90;;;;;;4982843;28;20041;-47
2023/09/25 01:16:04;;;;;;;5.90;3.80;;;12.50;99.90;;;;;;5000827;28;20052;-47
2023/09/25 01:18:29;;;;;;;4.95;3.42;;;12.40;99.90;;;;;;4988387;28;20050;-44
2023/09/25 01:20:55;;;;;;;5.38;3.53;;;12.40;99.90;;;;;;5000333;28;20042;-45
2023/09/25 01:23:21;;;;;;;8.18;3.70;;;12.40;99.90;;;;;;5000638;28;20447;-44
2023/09/25 01:25:46;;;;;;;6.45;3.72;;;12.30;99.90;;;;;;5000866;28;20045;-44
2023/09/25 01:28:12;;;;;;;7.07;3.97;;;12.20;99.90;;;;;;4998677;28;20556;-44
2023/09/25 01:30:38;;;;;;;6.72;4.10;;;12.20;99.90;;;;;;4966800;28;20057;-43
2023/09/25 01:33:04;;;;;;;8.48;4.50;;;12.20;99.90;;;;;;4982456;28;20111;-43
2023/09/25 01:35:30;;;;;;;7.00;4.03;;;12.10;99.90;;;;;;5001104;28;20599;-44
2023/09/25 01:38:04;;;;;;;7.35;4.00;;;12.10;99.90;;;;;;4999520;28;20095;-44
2023/09/25 01:40:31;;;;;;;6.53;4.47;;;12.00;99.90;;;;;;5000348;28;20053;-44
2023/09/25 01:42:56;;;;;;;6.95;4.53;;;12.00;99.90;;;;;;4965318;28;20054;-44
2023/09/25 01:45:23;;;;;;;6.25;4.97;;;12.00;99.90;;;;;;4980355;28;20049;-44
2023/09/25 01:47:50;;;;;;;7.40;4.53;;;11.90;99.90;;;;;;4996506;28;20521;-43
2023/09/25 01:50:27;;;;;;;6.57;4.20;;;11.90;99.90;;;;;;5000958;28;20042;-45
2023/09/25 01:52:58;;;;;;;18.30;5.40;;;11.80;99.90;;;;;;5000254;28;20056;-47
2023/09/25 01:55:27;;;;;;;6.25;4.75;;;11.80;99.90;;;;;;4977438;28;20091;-45
2023/09/25 01:57:52;;;;;;;8.35;4.45;;;11.80;99.90;;;;;;4982883;28;20053;-44
2023/09/25 02:00:18;;;;;;;6.72;4.47;;;11.80;99.90;;;;;;4982722;28;20073;-44
2023/09/25 02:02:46;;;;;;;6.85;4.90;;;11.80;99.90;;;;;;4989852;28;20046;-47
2023/09/25 02:05:12;;;;;;;6.43;4.97;;;11.80;99.90;;;;;;4992051;28;20511;-44
2023/09/25 02:07:38;;;;;;;6.63;4.88;;;11.70;99.90;;;;;;4998948;28;20503;-45
2023/09/25 02:10:04;;;;;;;8.52;5.10;;;11.70;99.90;;;;;;4982318;28;20053;-46
2023/09/25 02:12:29;;;;;;;6.18;4.38;;;11.70;99.90;;;;;;4959864;28;20306;-46
2023/09/25 02:15:01;;;;;;;7.43;4.88;;;11.70;99.90;;;;;;4982740;28;20049;-44
2023/09/25 02:17:29;;;;;;;8.07;4.65;;;11.80;99.90;;;;;;4981761;28;20042;-49
2023/09/25 02:20:12;;;;;;;7.18;4.88;;;11.80;99.90;;;;;;4976663;28;20647;-44
2023/09/25 02:22:37;;;;;;;6.72;4.47;;;11.80;99.90;;;;;;4999292;28;20049;-44
2023/09/25 02:25:04;;;;;;;7.38;5.15;;;11.80;99.90;;;;;;4999554;28;20037;-44
2023/09/25 02:27:29;;;;;;;7.20;4.32;;;11.80;99.90;;;;;;5000559;28;20067;-44
2023/09/25 02:29:55;;;;;;;7.30;4.55;;;11.90;99.90;;;;;;4996783;28;20424;-45
2023/09/25 02:32:20;;;;;;;6.47;4.50;;;11.90;99.90;;;;;;4981677;28;20073;-44
2023/09/25 02:34:46;;;;;;;4.82;4.20;;;11.90;99.90;;;;;;4999731;28;21007;-43
2023/09/25 02:37:13;;;;;;;5.93;4.53;;;11.90;99.90;;;;;;4996497;28;20045;-44
2023/09/25 02:39:38;;;;;;;6.65;4.07;;;11.90;99.90;;;;;;4996380;28;20425;-44
2023/09/25 02:42:04;;;;;;;9.23;3.95;;;11.90;99.90;;;;;;4991322;28;20057;-45
2023/09/25 02:44:30;;;;;;;9.93;4.72;;;11.90;99.90;;;;;;4995363;28;20800;-44
2023/09/25 02:46:55;;;;;;;5.57;4.70;;;12.00;99.90;;;;;;4996744;28;20121;-43
2023/09/25 02:49:21;;;;;;;6.63;4.30;;;12.00;99.90;;;;;;4999761;28;20445;-44
2023/09/25 02:51:46;;;;;;;7.90;4.75;;;11.90;99.90;;;;;;4999515;28;20046;-43
2023/09/25 02:54:12;;;;;;;6.45;4.53;;;11.90;99.90;;;;;;4997837;28;20450;-45
2023/09/25 02:56:38;;;;;;;5.22;4.18;;;11.90;99.90;;;;;;4999929;28;20104;-45
2023/09/25 02:59:03;;;;;;;6.28;4.28;;;11.90;99.90;;;;;;4999920;28;20146;-43
2023/09/25 03:01:29;;;;;;;6.80;4.50;;;11.90;99.90;;;;;;4979088;28;20054;-44
2023/09/25 03:03:54;;;;;;;6.65;4.53;;;11.90;99.90;;;;;;4990809;28;20048;-45
2023/09/25 03:06:20;;;;;;;7.07;3.95;;;11.90;99.90;;;;;;4981766;28;20115;-43
2023/09/25 03:08:45;;;;;;;7.75;4.68;;;11.90;99.90;;;;;;4981639;28;20052;-43
2023/09/25 03:11:11;;;;;;;5.78;4.18;;;11.90;99.90;;;;;;4998145;28;20056;-44
2023/09/25 03:13:37;;;;;;;6.97;4.55;;;11.90;99.90;;;;;;4998853;28;20109;-43
2023/09/25 03:16:12;;;;;;;6.53;4.85;;;11.90;99.90;;;;;;4999703;28;20045;-44
2023/09/25 03:18:38;;;;;;;5.95;4.40;;;11.90;99.90;;;;;;4998907;28;20539;-44
2023/09/25 03:21:10;;;;;;;6.80;4.40;;;11.90;99.90;;;;;;4989540;28;20033;-44
2023/09/25 03:23:36;;;;;;;5.97;4.65;;;11.90;99.90;;;;;;4981022;28;20091;-45
2023/09/25 03:26:01;;;;;;;5.97;4.70;;;11.90;99.90;;;;;;4999937;28;20042;-44
2023/09/25 03:28:27;;;;;;;6.70;4.45;;;11.90;99.90;;;;;;4998178;28;20121;-44
2023/09/25 03:30:53;;;;;;;7.65;5.07;;;11.90;99.90;;;;;;4982034;28;20165;-44
2023/09/25 03:33:20;;;;;;;6.13;4.38;;;11.90;99.90;;;;;;5003371;28;20048;-44
2023/09/25 03:35:46;;;;;;;8.30;4.20;;;11.90;99.90;;;;;;5003565;28;20046;-44
2023/09/25 03:38:11;;;;;;;5.65;4.10;;;11.90;99.90;;;;;;4997492;28;20354;-44
2023/09/25 03:40:37;;;;;;;7.50;4.10;;;11.90;99.90;;;;;;5003350;28;20284;-44
2023/09/25 03:43:03;;;;;;;6.20;4.20;;;11.90;99.90;;;;;;4972552;28;20827;-43
2023/09/25 03:45:28;;;;;;;5.70;4.32;;;11.90;99.90;;;;;;5002837;28;20042;-44
2023/09/25 03:47:54;;;;;;;5.18;4.35;;;11.90;99.90;;;;;;4983219;28;20056;-43
2023/09/25 03:50:19;;;;;;;4.88;4.35;;;11.90;99.90;;;;;;5002597;28;20139;-42
2023/09/25 03:52:45;;;;;;;5.30;4.15;;;11.90;99.90;;;;;;5002638;28;20045;-43
2023/09/25 03:55:11;;;;;;;5.63;4.25;;;11.90;99.90;;;;;;4964910;28;20208;-44
2023/09/25 03:57:36;;;;;;;7.10;4.82;;;11.90;99.90;;;;;;4999795;28;20061;-45
2023/09/25 04:00:06;;;;;;;6.13;4.60;;;11.90;99.90;;;;;;5000939;28;20075;-44
2023/09/25 04:02:31;;;;;;;6.15;4.53;;;11.90;99.90;;;;;;4987435;28;20136;-46
2023/09/25 04:04:57;;;;;;;6.97;4.82;;;11.80;99.90;;;;;;4974125;28;20052;-43
2023/09/25 04:07:22;;;;;;;5.97;5.05;;;11.80;99.90;;;;;;4966727;28;20041;-43
2023/09/25 04:09:48;;;;;;;5.35;4.20;;;11.80;99.90;;;;;;5002290;28;20568;-45
2023/09/25 04:12:14;;;;;;;6.63;4.93;;;11.80;99.90;;;;;;4973552;28;20084;-43
2023/09/25 04:14:41;;;;;;;5.35;4.30;;;11.80;99.90;;;;;;4992289;28;20049;-43
2023/09/25 04:17:08;;;;;;;5.38;4.10;;;11.80;99.90;;;;;;5001692;28;20056;-43
2023/09/25 04:19:33;;;;;;;6.53;4.15;;;11.80;99.90;;;;;;5001778;28;20053;-44
2023/09/25 04:21:59;;;;;;;9.38;4.82;;;11.80;99.90;;;;;;4966853;28;20046;-44
2023/09/25 04:24:25;;;;;;;5.70;3.95;;;11.80;99.90;;;;;;4984712;28;20433;-43
2023/09/25 04:26:52;;;;;;;8.82;4.95;;;11.80;99.90;;;;;;5001623;28;20434;-44
2023/09/25 04:29:18;;;;;;;6.50;4.28;;;11.80;99.90;;;;;;4993702;28;20343;-43
2023/09/25 04:31:47;;;;;;;7.88;5.13;;;11.80;99.90;;;;;;5001222;28;20069;-44
2023/09/25 04:34:12;;;;;;;7.25;4.55;;;11.80;99.90;;;;;;4983702;28;20069;-44
2023/09/25 04:36:38;;;;;;;7.13;4.65;;;11.80;99.90;;;;;;4983355;28;20041;-46
2023/09/25 04:39:04;;;;;;;7.72;4.50;;;11.80;99.90;;;;;;4982383;28;20282;-44
2023/09/25 04:41:30;;;;;;;8.43;4.65;;;11.80;99.90;;;;;;4979995;28;20141;-46
2023/09/25 04:43:55;;;;;;;7.85;4.43;;;11.80;99.90;;;;;;4999502;28;20049;-44
2023/09/25 04:46:21;;;;;;;6.25;4.53;;;11.80;99.90;;;;;;4967824;28;20052;-45
2023/09/25 04:48:47;;;;;;;5.32;4.20;;;11.70;99.90;;;;;;4965305;28;20133;-43
2023/09/25 04:51:16;;;;;;;5.32;4.25;;;11.70;99.90;;;;;;4983627;28;20060;-43
2023/09/25 04:53:42;;;;;;;6.30;4.15;;;11.70;99.90;;;;;;4983202;28;20630;-44
2023/09/25 04:56:09;;;;;;;5.70;4.53;;;11.70;99.90;;;;;;4977898;28;20111;-43
2023/09/25 04:58:34;;;;;;;7.20;4.80;;;11.70;99.90;;;;;;5001208;28;20107;-43
2023/09/25 05:01:00;;;;;;;6.43;4.40;;;11.70;99.90;;;;;;5000657;28;20050;-45
2023/09/25 05:03:25;;;;;;;5.38;4.43;;;11.70;99.90;;;;;;4966265;28;20061;-45
2023/09/25 05:05:51;;;;;;;7.40;4.45;;;11.70;99.90;;;;;;4996190;28;20065;-44
2023/09/25 05:08:17;;;;;;;5.75;4.22;;;11.70;99.90;;;;;;4967604;28;20060;-44
2023/09/25 05:10:45;;;;;;;8.77;4.65;;;11.70;99.90;;;;;;4978356;28;20429;-44
2023/09/25 05:13:11;;;;;;;5.07;4.15;;;11.70;99.90;;;;;;4992879;28;20053;-44
2023/09/25 05:15:36;;;;;;;5.35;4.10;;;11.70;99.90;;;;;;4974382;28;20045;-44
2023/09/25 05:18:02;;;;;;;6.60;4.10;;;11.70;99.90;;;;;;5000548;28;20046;-45
2023/09/25 05:20:28;;;;;;;6.78;3.90;;;11.60;99.90;;;;;;5000144;28;20046;-44
2023/09/25 05:22:56;;;;;;;6.22;3.85;;;11.70;99.90;;;;;;4997283;28;20369;-44
2023/09/25 05:25:22;;;;;;;6.72;4.20;;;11.70;99.90;;;;;;5000828;28;20046;-45
2023/09/25 05:27:50;;;;;;;4.70;3.97;;;11.70;99.90;;;;;;4982865;28;20141;-46
2023/09/25 05:30:17;;;;;;;4.40;3.60;;;11.70;99.90;;;;;;4982623;28;20048;-44
2023/09/25 05:32:48;;;;;;;4.68;3.80;;;11.70;99.90;;;;;;5000093;28;20041;-46
2023/09/25 05:35:14;;;;;;;5.53;4.45;;;11.70;99.90;;;;;;5000638;28;20429;-45
2023/09/25 05:37:41;;;;;;;6.65;3.95;;;11.70;99.90;;;;;;4982331;28;20034;-46
2023/09/25 05:40:10;;;;;;;6.50;4.18;;;11.70;99.90;;;;;;4981957;28;20050;-45
2023/09/25 05:42:40;;;;;;;6.07;4.13;;;11.70;99.90;;;;;;4967502;28;20365;-46
2023/09/25 05:45:07;;;;;;;5.82;4.20;;;11.70;99.90;;;;;;5000714;28;20488;-46
2023/09/25 05:47:33;;;;;;;5.65;4.53;;;11.70;99.90;;;;;;5000476;28;20056;-45
2023/09/25 05:50:00;;;;;;;6.78;4.35;;;11.70;99.90;;;;;;4979672;28;20038;-45
2023/09/25 05:52:25;;;;;;;7.40;3.97;;;11.70;99.90;;;;;;4993370;28;20438;-44
2023/09/25 05:54:51;;;;;;;5.18;3.83;;;11.70;99.90;;;;;;4981679;28;20057;-45
2023/09/25 05:57:18;;;;;;;5.93;3.97;;;11.70;99.90;;;;;;5000029;28;20046;-45
2023/09/25 05:59:43;;;;;;;4.97;4.28;;;11.70;99.90;;;;;;4975621;28;20054;-45
2023/09/25 06:02:09;;;;;;;5.50;4.30;;;11.80;99.90;;;;;;4985695;28;20073;-47
2023/09/25 06:04:39;;;;;;;7.25;4.32;;;11.80;99.90;;;;;;4980822;28;20433;-44
2023/09/25 06:07:05;;;;;;;6.38;3.95;;;11.80;99.90;;;;;;4998871;28;20065;-44
2023/09/25 06:09:33;;;;;;;5.43;4.15;;;11.90;99.90;;;;;;5000071;28;20413;-45
2023/09/25 06:11:59;;;;;;;4.75;3.65;;;11.90;99.90;;;;;;4999055;28;20141;-45
2023/09/25 06:14:28;;;;;;;5.38;3.67;;;11.90;99.90;;;;;;4999771;28;20116;-46
2023/09/25 06:16:55;;;;;;;6.35;4.07;;;12.00;99.90;;;;;;4982142;28;20077;-44
2023/09/25 06:19:21;;;;;;;4.63;3.42;;;12.00;99.90;;;;;;5000252;28;20050;-48
2023/09/25 06:21:47;;;;;;;5.40;3.67;;;12.10;99.90;;;;;;4999366;28;20045;-43
2023/09/25 06:24:13;;;;;;;6.63;3.95;;;12.10;99.90;;;;;;5000315;28;20131;-44
2023/09/25 06:26:39;;;;;;;6.07;3.83;;;12.20;99.90;;;;;;4977346;28;20077;-44
2023/09/25 06:29:08;;;;;;;7.13;3.90;;;12.20;99.90;;;;;;4981822;28;20471;-43
2023/09/25 06:31:35;;;;;;;5.75;3.17;;;12.20;99.90;;;;;;4999108;28;20719;-44
2023/09/25 06:34:00;;;;;;;4.93;3.45;;;12.20;99.90;;;;;;4999021;28;20772;-43
2023/09/25 06:36:26;;;;;;;5.55;3.80;;;12.30;99.90;;;;;;4981688;28;20381;-44
2023/09/25 06:38:52;;;;;;;4.72;3.38;;;12.30;99.90;;;;;;4981847;28;20045;-44
2023/09/25 06:41:17;;;;;;;5.63;4.55;;;12.30;99.90;;;;;;4997381;28;20152;-45
2023/09/25 06:43:43;;;;;;;6.25;3.70;;;12.40;99.90;;;;;;4987954;28;20118;-43
2023/09/25 06:46:09;;;;;;;8.65;3.63;;;12.40;99.90;;;;;;4978119;28;20037;-45
2023/09/25 06:48:35;;;;;;;5.65;3.30;;;12.50;99.90;;;;;;5003671;28;20674;-45
2023/09/25 06:51:01;;;;;;;5.05;3.38;;;12.60;99.90;;;;;;4992252;28;20286;-45
2023/09/25 06:53:26;;;;;;;6.53;3.47;;;12.60;99.90;;;;;;4997227;28;20046;-44
2023/09/25 06:55:52;;;;;;;8.50;4.03;;;12.70;99.90;;;;;;5012706;28;20272;-44
2023/09/25 06:58:18;;;;;;;5.78;3.22;;;12.70;99.90;;;;;;5015637;28;20706;-44
2023/09/25 07:00:45;;;;;;;8.13;3.33;;;12.80;99.90;;;;;;5015439;28;20083;-47
2023/09/25 07:03:11;;;;;;;7.07;3.80;;;12.90;99.90;;;;;;5016801;28;20038;-44
2023/09/25 07:05:36;;;;;;;5.53;3.40;;;13.00;99.90;;;;;;5013313;28;20037;-44
2023/09/25 07:08:03;;;;;;;3.92;2.90;;;13.10;99.90;;;;;;4998778;28;20076;-44
2023/09/25 07:10:30;;;;;;;4.97;3.80;;;13.20;99.90;;;;;;4993278;28;20119;-44
2023/09/25 07:12:56;;;;;;;6.97;3.35;;;13.30;99.90;;;;;;5017394;28;20095;-44
2023/09/25 07:15:22;;;;;;;4.05;3.25;;;13.40;99.90;;;;;;4997095;28;20034;-45
2023/09/25 07:17:48;;;;;;;5.82;3.28;;;13.50;99.90;;;;;;5015972;28;20408;-45
2023/09/25 07:20:14;;;;;;;7.10;3.65;;;13.60;99.90;;;;;;5014862;28;20041;-44
2023/09/25 07:22:39;;;;;;;5.65;2.92;;;13.60;99.90;;;;;;5016856;28;20076;-44
2023/09/25 07:25:05;;;;;;;8.48;3.20;;;13.70;99.90;;;;;;5014931;28;20037;-44
2023/09/25 07:27:33;;;;;;;5.88;3.10;;;13.70;99.90;;;;;;5011635;28;20381;-47
2023/09/25 07:29:59;;;;;;;5.63;3.47;;;13.80;99.90;;;;;;4994940;28;20495;-44
2023/09/25 07:32:25;;;;;;;5.65;2.90;;;13.80;99.90;;;;;;4997141;28;20108;-45
2023/09/25 07:34:51;;;;;;;4.35;3.05;;;13.80;99.90;;;;;;5000887;28;20038;-45
2023/09/25 07:37:17;;;;;;;5.38;2.90;;;13.90;99.90;;;;;;4980829;28;20786;-44
2023/09/25 07:39:43;;;;;;;5.80;3.63;;;14.00;99.90;;;;;;4998642;28;20097;-44
2023/09/25 07:42:13;;;;;;;7.38;2.85;;;14.10;99.90;;;;;;4997639;28;20073;-44
2023/09/25 07:44:38;;;;;;;6.88;3.45;;;14.10;99.90;;;;;;4981019;28;20117;-44
2023/09/25 07:47:10;;;;;;;4.60;3.17;;;14.20;99.90;;;;;;4998784;28;20070;-45
2023/09/25 07:49:40;;;;;;;6.47;3.20;;;14.30;99.90;;;;;;5001956;28;20048;-44
2023/09/25 07:52:15;;;;;;;3.88;2.60;;;14.40;99.90;;;;;;4987491;28;20607;-45
2023/09/25 07:54:45;;;;;;;5.07;2.72;;;14.50;99.90;;;;;;4986157;28;20038;-45
2023/09/25 07:57:20;;;;;;;3.42;2.78;;;14.60;99.90;;;;;;4986848;28;20227;-45
2023/09/25 07:59:47;;;;;;;6.10;2.95;;;14.80;99.90;;;;;;4967645;28;20041;-44
2023/09/25 08:02:19;;;;;;;3.65;2.65;;;14.80;99.90;;;;;;4989382;28;20038;-44
2023/09/25 08:04:45;;;;;;;5.65;3.22;;;14.90;99.90;;;;;;4990177;28;20038;-45
2023/09/25 08:07:11;;;;;;;4.80;2.95;;;15.00;99.90;;;;;;5002479;28;20118;-45
2023/09/25 08:09:37;;;;;;;4.25;2.72;;;15.10;99.90;;;;;;4982771;28;20053;-44
2023/09/25 08:12:03;;;;;;;4.63;2.97;;;15.20;99.90;;;;;;5004128;28;20057;-44
2023/09/25 08:14:29;;;;;;;4.72;3.20;;;15.30;99.90;;;;;;4986553;28;20042;-43
2023/09/25 08:16:55;;;;;;;7.07;2.88;;;15.50;99.90;;;;;;4988771;28;20037;-44
2023/09/25 08:19:22;;;;;;;5.10;2.80;;;15.60;99.90;;;;;;4990839;28;20064;-44
2023/09/25 08:21:50;;;;;;;5.55;2.90;;;15.60;99.90;;;;;;5008023;28;20456;-45
2023/09/25 08:24:16;;;;;;;6.28;3.00;;;15.60;99.90;;;;;;5006766;28;20393;-44
2023/09/25 08:26:46;;;;;;;4.88;2.90;;;15.70;99.90;;;;;;5018457;28;20041;-44
2023/09/25 08:29:15;;;;;;;6.20;2.90;;;15.60;99.90;;;;;;5018716;28;20088;-45
2023/09/25 08:31:44;;;;;;;4.95;2.63;;;15.70;99.90;;;;;;4990190;28;20053;-44
2023/09/25 08:34:13;;;;;;;3.80;2.45;;;15.70;99.90;;;;;;5013976;28;20049;-44
2023/09/25 08:36:39;;;;;;;4.07;2.88;;;15.70;99.90;;;;;;4985760;28;20084;-44
2023/09/25 08:39:04;;;;;;;4.88;2.67;;;15.70;99.90;;;;;;4989079;28;20546;-47
2023/09/25 08:41:31;;;;;;;3.40;2.75;;;15.70;99.90;;;;;;5001722;28;20054;-45
2023/09/25 08:43:57;;;;;;;3.95;2.85;;;15.80;99.90;;;;;;4952703;28;20402;-44
2023/09/25 08:46:25;;;;;;;5.07;2.55;;;15.90;99.90;;;;;;4982171;28;20633;-45
2023/09/25 08:48:52;;;;;;;4.55;2.60;;;16.00;99.90;;;;;;4997623;28;20041;-45
2023/09/25 08:51:20;;;;;;;4.97;2.63;;;16.10;99.90;;;;;;4999733;28;20081;-45
2023/09/25 08:53:46;;;;;;;4.15;2.28;;;16.20;99.90;;;;;;4967268;28;20061;-45
2023/09/25 08:56:15;;;;;;;3.70;2.80;;;16.20;99.90;;;;;;4982719;28;20042;-46
2023/09/25 08:58:43;;;;;;;6.85;2.85;;;16.30;99.90;;;;;;4978393;28;20404;-45
2023/09/25 09:01:09;;;;;;;3.80;2.40;;;16.30;99.90;;;;;;4967761;28;20493;-44
2023/09/25 09:03:34;;;;;;;4.55;2.85;;;16.40;99.90;;;;;;4982154;28;20073;-44
2023/09/25 09:06:00;;;;;;;4.65;2.83;;;16.50;99.90;;;;;;5001116;28;20046;-45
2023/09/25 09:08:29;;;;;;;4.15;2.30;;;16.50;99.90;;;;;;4980839;28;20750;-45
2023/09/25 09:10:54;;;;;;;6.25;2.60;;;16.50;99.90;;;;;;4975981;28;20066;-45
2023/09/25 09:13:23;;;;;;;3.80;2.80;;;16.50;99.90;;;;;;5000710;28;20052;-45
2023/09/25 09:15:49;;;;;;;3.80;2.78;;;16.60;99.90;;;;;;4999980;28;20509;-44
2023/09/25 09:18:19;;;;;;;5.55;2.78;;;16.60;99.90;;;;;;5000858;28;20056;-45
2023/09/25 09:20:45;;;;;;;6.63;3.33;;;16.80;99.90;;;;;;5000780;28;20060;-44
2023/09/25 09:23:10;;;;;;;5.47;2.80;;;16.90;99.90;;;;;;4998555;28;20042;-44
2023/09/25 09:25:36;;;;;;;4.40;2.75;;;17.00;99.90;;;;;;5001283;28;20042;-45
2023/09/25 09:28:08;;;;;;;7.25;3.20;;;17.10;99.90;;;;;;5000190;28;20038;-45
2023/09/25 09:30:34;;;;;;;5.70;3.00;;;17.10;99.90;;;;;;4997333;28;20556;-45
2023/09/25 09:33:00;;;;;;;5.80;2.78;;;17.10;99.90;;;;;;4995847;28;20063;-47
2023/09/25 09:35:26;;;;;;;5.07;2.70;;;17.10;99.90;;;;;;4994004;28;20042;-45
2023/09/25 09:37:52;;;;;;;4.45;2.72;;;17.10;99.90;;;;;;4998530;28;20044;-45
2023/09/25 09:40:20;;;;;;;4.50;2.92;;;17.10;99.90;;;;;;4961465;28;20713;-45
2023/09/25 09:42:48;;;;;;;8.02;3.30;;;17.20;99.90;;;;;;4996515;28;20084;-45
2023/09/25 09:45:13;;;;;;;5.13;2.90;;;17.20;99.90;;;;;;5000773;28;20134;-48
2023/09/25 09:47:44;;;;;;;3.95;2.63;;;17.20;99.90;;;;;;5000679;28;20848;-44
2023/09/25 09:50:11;;;;;;;6.00;2.92;;;17.30;99.90;;;;;;4987423;28;20045;-44
2023/09/25 09:52:41;;;;;;;5.93;2.95;;;17.40;99.90;;;;;;4980952;28;20049;-45
2023/09/25 09:55:08;;;;;;;5.18;2.72;;;17.50;99.90;;;;;;4993839;28;20128;-46
2023/09/25 09:57:36;;;;;;;3.72;2.47;;;17.70;99.90;;;;;;4977792;28;20133;-44
2023/09/25 10:00:05;;;;;;;7.38;3.20;;;17.90;99.90;;;;;;4965383;28;20081;-46
2023/09/25 10:02:30;;;;;;;4.55;2.80;;;18.00;99.90;;;;;;4977804;28;20049;-44
2023/09/25 10:04:57;;;;;;;6.05;2.92;;;18.00;99.90;;;;;;5000280;28;20060;-44
2023/09/25 10:07:23;;;;;;;4.60;3.05;;;18.00;99.90;;;;;;4966090;28;20262;-48
2023/09/25 10:10:05;;;;;;;4.32;2.95;;;18.00;99.90;;;;;;5000136;28;20553;-48
2023/09/25 10:12:48;;;;;;;6.28;3.20;;;18.10;99.90;;;;;;4981908;28;20045;-48
2023/09/25 10:15:18;;;;;;;4.10;2.85;;;18.20;99.90;;;;;;5000449;28;20046;-44
2023/09/25 10:17:45;;;;;;;6.03;2.78;;;18.30;99.90;;;;;;4986311;28;20665;-47
2023/09/25 10:20:30;;;;;;;7.07;3.30;;;18.30;99.90;;;;;;5005947;28;20045;-45
2023/09/25 10:23:21;;;;;;;5.60;3.03;;;18.30;99.90;;;;;;4991885;28;20049;-45
2023/09/25 10:25:52;;;;;;;7.75;3.22;;;18.20;99.90;;;;;;4967388;28;20065;-46
2023/09/25 10:28:27;;;;;;;5.38;2.97;;;18.30;99.90;;;;;;4999595;28;20049;-45
2023/09/25 10:31:17;;;;;;;4.80;2.85;;;18.40;99.90;;;;;;4981473;28;20045;-45
2023/09/25 10:34:04;;;;;;;6.10;2.92;;;18.40;99.90;;;;;;4994197;28;20119;-49
2023/09/25 10:36:52;;;;;;;7.00;3.70;;;18.50;99.90;;;;;;5000313;28;20425;-47
2023/09/25 10:39:19;;;;;;;6.00;2.95;;;18.60;99.90;;;;;;4997235;28;20041;-46
2023/09/25 10:41:45;;;;;;;6.15;2.95;;;18.60;99.90;;;;;;4975216;28;20108;-46
2023/09/25 10:44:12;;;;;;;5.47;3.13;;;18.60;99.90;;;;;;4997218;28;20045;-45
2023/09/25 10:46:38;;;;;;;5.70;3.53;;;18.60;99.90;;;;;;4999538;28;20779;-45
2023/09/25 10:49:06;;;;;;;5.82;3.17;;;18.70;99.90;;;;;;4999571;28;20048;-47
2023/09/25 10:51:31;;;;;;;9.00;3.25;;;18.70;99.90;;;;;;4998648;28;20069;-46
2023/09/25 10:53:57;;;;;;;6.35;3.00;;;18.70;99.90;;;;;;4981297;28;20046;-44
2023/09/25 10:56:23;;;;;;;5.90;3.03;;;18.60;99.90;;;;;;4981769;28;20053;-45
2023/09/25 10:58:52;;;;;;;4.38;2.97;;;18.70;99.90;;;;;;4999723;28;20046;-45
2023/09/25 11:01:31;;;;;;;5.60;2.78;;;18.70;99.90;;;;;;4967113;28;20045;-48
2023/09/25 11:04:00;;;;;;;6.65;2.60;;;18.70;99.90;;;;;;4977254;28;20049;-46
2023/09/25 11:06:27;;;;;;;4.50;3.17;;;18.80;99.90;;;;;;5000028;28;20104;-47
2023/09/25 11:09:11;;;;;;;5.38;3.03;;;18.80;99.90;;;;;;4999395;28;20034;-45
2023/09/25 11:11:39;;;;;;;5.93;3.13;;;18.80;99.90;;;;;;4998495;28;20049;-46
2023/09/25 11:14:05;;;;;;;8.77;3.05;;;18.80;99.90;;;;;;4998021;28;20041;-47
2023/09/25 11:16:31;;;;;;;5.78;2.60;;;18.80;99.90;;;;;;4980990;28;20448;-45
2023/09/25 11:19:12;;;;;;;6.65;3.10;;;18.90;99.90;;;;;;4981093;28;20388;-48
2023/09/25 11:21:39;;;;;;;9.18;3.50;;;19.00;99.90;;;;;;5000527;28;20661;-47
2023/09/25 11:24:09;;;;;;;10.38;3.67;;;19.10;99.90;;;;;;4995857;28;20484;-47
2023/09/25 11:26:39;;;;;;;4.85;3.00;;;19.20;99.90;;;;;;4971919;28;20151;-46
2023/09/25 11:29:12;;;;;;;6.57;4.00;;;19.40;99.90;;;;;;4991411;28;20422;-47
2023/09/25 11:31:38;;;;;;;7.22;3.20;;;19.40;99.90;;;;;;4994700;28;20042;-47
2023/09/25 11:34:07;;;;;;;6.65;3.30;;;19.50;99.90;;;;;;4999070;28;20030;-44
2023/09/25 11:36:34;;;;;;;6.85;3.22;;;19.40;99.90;;;;;;5003734;28;20144;-44
2023/09/25 11:39:12;;;;;;;8.98;3.22;;;19.30;99.90;;;;;;5008289;28;20090;-44
2023/09/25 11:41:38;;;;;;;7.40;3.40;;;19.30;99.90;;;;;;4986829;28;20133;-45
2023/09/25 11:44:04;;;;;;;6.38;3.53;;;19.40;99.90;;;;;;5007151;28;20061;-45
2023/09/25 11:46:30;;;;;;;5.53;3.05;;;19.40;99.90;;;;;;5005386;28;20050;-45
2023/09/25 11:48:55;;;;;;;6.63;3.38;;;19.50;99.90;;;;;;5006919;28;20478;-45
2023/09/25 11:51:21;;;;;;;10.05;3.67;;;19.50;99.90;;;;;;4988819;28;20481;-46
2023/09/25 11:53:48;;;;;;;5.82;3.25;;;19.70;99.90;;;;;;4993062;28;20071;-50
2023/09/25 11:56:14;;;;;;;4.72;3.10;;;19.60;99.90;;;;;;5009408;28;20050;-46
2023/09/25 11:58:41;;;;;;;4.55;3.10;;;19.70;99.90;;;;;;4985540;28;20061;-47
2023/09/25 12:01:06;;;;;;;5.28;3.47;;;19.70;99.90;;;;;;4995117;28;20041;-44
2023/09/25 12:03:38;;;;;;;12.13;3.47;;;19.80;99.90;;;;;;4980737;28;20049;-46
2023/09/25 12:06:05;;;;;;;6.00;2.95;;;19.80;99.90;;;;;;4999130;28;20112;-45
2023/09/25 12:08:31;;;;;;;5.07;3.10;;;19.80;99.90;;;;;;5002113;28;20049;-46
2023/09/25 12:10:56;;;;;;;5.07;2.95;;;19.90;99.90;;;;;;4967338;28;20154;-43
2023/09/25 12:13:22;;;;;;;15.02;4.30;;;19.90;99.90;;;;;;4996276;28;20049;-46
2023/09/25 12:15:48;;;;;;;5.45;3.28;;;20.10;99.90;;;;;;4984031;28;20523;-47
2023/09/25 12:18:14;;;;;;;5.55;3.08;;;20.30;99.90;;;;;;5003628;28;20377;-47
2023/09/25 12:20:41;;;;;;;7.13;3.30;;;20.50;99.90;;;;;;5001726;28;20038;-46
2023/09/25 12:23:10;;;;;;;6.75;3.53;;;20.60;99.90;;;;;;4983472;28;20054;-45
2023/09/25 12:25:36;;;;;;;5.43;2.78;;;20.60;99.90;;;;;;4983834;28;20057;-45
2023/09/25 12:28:05;;;;;;;7.63;2.70;;;20.50;99.90;;;;;;4972485;28;20042;-45
2023/09/25 12:30:30;;;;;;;5.47;3.20;;;20.50;99.90;;;;;;4995805;28;20050;-47
2023/09/25 12:32:56;;;;;;;6.40;3.03;;;20.60;99.90;;;;;;4976580;28;20045;-48
2023/09/25 12:35:22;;;;;;;5.20;2.78;;;20.60;99.90;;;;;;4978062;28;20026;-45
2023/09/25 12:37:50;;;;;;;5.55;3.45;;;20.50;99.90;;;;;;4995774;28;20030;-45
2023/09/25 12:40:15;;;;;;;5.88;3.10;;;20.50;99.90;;;;;;4994714;28;20121;-48
2023/09/25 12:42:42;;;;;;;3.88;3.08;;;20.40;99.90;;;;;;4975949;28;20061;-46
2023/09/25 12:45:09;;;;;;;6.57;3.40;;;20.50;99.90;;;;;;4999294;28;20137;-45